• Join FlightAware (Why Join?)
  • Login
  • US Flag 
11:44AM EST


 

Airport Tracker/Info


-or-


 

Live Flight TrackerFlight Track Log ✈ EJM685 ✈ 24-Nov-2013 ✈ KTEB - KBWI

Flight Track Log - Related Links

Times and Time Zones

All times are in EST time to prevent confusion due to time zone crossing. See the EJM685 flight status page for this flight to view local times or setup timezone preferences in your user account.

Time Position Orientation Groundspeed Altitude Reporting Facility
EST Latitude Longitude Course Direction KTS MPH feet Rate Location/Type
10:15AM 40.8167 -74.1500 237° Southwest 195 224 4,600  Level New York TRACON
10:16AM 40.7833 -74.2167 237° Southwest 257 296 8,900 3,952 Climbing New York TRACON
10:17AM 40.7333 -74.3167 237° Southwest 321 369 12,900 2,471 Climbing New York TRACON
10:19AM 40.6444 -74.5017 238° Southwest 359 413 15,900 1,171 Climbing New York Center
10:20AM 40.6415 -74.3979 237° Southwest  Level Estimated
10:20AM 40.5928 -74.6108 238° Southwest 354 407 16,100  Level New York Center
10:21AM 40.5481 -74.7094 239° Southwest 333 383 17,500 958 Climbing New York Center
10:22AM 40.4989 -74.8075 237° Southwest 328 377 18,000 250 Climbing New York Center
10:23AM 40.4606 -74.8925 239° Southwest 323 372 18,000  Level New York Center
10:24AM 40.4111 -74.9878 236° Southwest 323 372 18,000  Level New York Center
10:25AM 40.3389 -75.0894 227° Southwest 344 396 18,000  Level New York Center
10:26AM 40.2728 -75.1806 226° Southwest 355 409 18,000  Level New York Center
10:27AM 40.2047 -75.2742 226° Southwest 361 415 18,000  Level New York Center
10:28AM 40.1386 -75.3678 227° Southwest 355 409 18,000  Level New York Center
10:29AM 40.0706 -75.4581 225° Southwest 355 409 18,000  Level New York Center
10:30AM 40.0042 -75.5511 227° Southwest 355 409 18,000  Level New York Center
10:31AM 39.9444 -75.6364 228° Southwest 361 415 18,000 -353 Level New York Center
10:32AM 39.8817 -75.7431 233° Southwest 355 409 17,300 -800 Descending New York Center
10:33AM 39.8272 -75.8447 235° Southwest 346 398 16,400 -1,091 Descending New York Center
10:34AM 39.7792 -75.9411 237° Southwest 339 390 15,100 -1,190 Descending New York Center
10:36AM 39.7122 -76.0423 237° Southwest  Level FlightAware Approximate
10:37AM 39.6500 -76.1833 237° Southwest 277 319 11,800  Level Potomac TRACON
10:38AM 39.6000 -76.2500 226° Southwest 289 333 10,600 -1,211 Descending Potomac TRACON
10:39AM 39.5333 -76.3000 210° Southwest 284 327 9,500 -800 Descending Potomac TRACON
10:40AM 39.4667 -76.3667 218° Southwest 280 322 9,000 -600 Descending Potomac TRACON
10:41AM 39.4000 -76.4167 210° Southwest 293 337 8,300 -1,143 Descending Potomac TRACON
10:42AM 39.3167 -76.4500 197° South 281 323 6,600 -1,550 Descending Potomac TRACON
10:43AM 39.2500 -76.4500 180° South 277 319 5,200 -1,500 Descending Potomac TRACON
10:43AM 39.1833 -76.4333 169° South 269 310 3,900 -1,105 Descending Potomac TRACON
10:44AM 39.1167 -76.4333 180° South 260 299 3,100 -474 Descending Potomac TRACON
10:45AM 39.0500 -76.4667 201° Southwest 232 267 3,000 -316 Descending Potomac TRACON
10:46AM 39.0500 -76.5333 270° West 163 188 2,500 -365 Descending Potomac TRACON
10:47AM 39.0667 -76.5667 303° West 144 166 2,300 -263 Descending Potomac TRACON
10:48AM 39.0833 -76.5833 322° Northwest 120 138 2,000 -400 Descending Potomac TRACON
10:49AM 39.1167 -76.6167 322° Northwest 111 128 1,500 -550 Descending Potomac TRACON
10:50AM 39.1333 -76.6333 322° Northwest 105 121 1,000 -667 Descending Potomac TRACON
10:51AM 39.1500 -76.6500 322° Northwest 112 129 300 -700 Descending Potomac TRACON